createdAt,value
2022-09-15T00:01:18.554Z,1.40
2022-09-15T00:03:20.839Z,1.52
2022-09-15T00:05:22.320Z,1.80
2022-09-15T00:07:24.177Z,1.58
2022-09-15T00:09:26.784Z,1.58
2022-09-15T00:11:29.167Z,1.58
2022-09-15T00:13:30.623Z,1.33
2022-09-15T00:15:31.861Z,1.30
2022-09-15T00:17:33.281Z,1.58
2022-09-15T00:19:34.830Z,1.10
2022-09-15T00:21:38.134Z,1.35
2022-09-15T00:23:39.838Z,1.30
2022-09-15T00:25:45.645Z,1.10
2022-09-15T00:27:47.338Z,1.15
2022-09-15T00:29:48.574Z,1.00
2022-09-15T00:31:50.265Z,1.30
2022-09-15T00:33:52.731Z,1.02
2022-09-15T00:35:54.044Z,1.10
2022-09-15T00:37:55.483Z,1.33
2022-09-15T00:39:56.943Z,1.10
2022-09-15T00:41:58.389Z,1.10
2022-09-15T00:44:05.763Z,1.08
2022-09-15T00:46:07.579Z,1.17
2022-09-15T00:48:11.488Z,1.40
2022-09-15T00:50:14.846Z,1.27
2022-09-15T00:52:16.062Z,1.30
2022-09-15T00:54:19.081Z,1.58
2022-09-15T00:56:21.474Z,1.40
2022-09-15T00:58:29.303Z,1.70
2022-09-15T01:00:30.654Z,1.98
2022-09-15T01:02:33.207Z,1.80
2022-09-15T01:04:34.645Z,1.70
2022-09-15T01:06:38.058Z,1.85
2022-09-15T01:08:48.139Z,1.90
2022-09-15T01:10:52.139Z,1.70
2022-09-15T01:13:04.419Z,1.70
2022-09-15T01:15:05.862Z,2.20
2022-09-15T01:17:07.172Z,1.80
2022-09-15T01:19:22.256Z,2.33
2022-09-15T01:21:35.459Z,1.83
2022-09-15T01:23:55.037Z,2.35
2022-09-15T01:25:59.808Z,2.00
2022-09-15T01:28:03.898Z,2.00
2022-09-15T01:30:06.333Z,1.95
2022-09-15T01:32:26.179Z,2.40
2022-09-15T01:34:29.950Z,2.53
2022-09-15T01:36:38.589Z,2.97
2022-09-15T01:39:03.159Z,3.65
2022-09-15T01:41:17.793Z,3.00
2022-09-15T01:43:21.276Z,3.50
2022-09-15T01:45:25.126Z,2.78
2022-09-15T01:47:28.378Z,3.00
2022-09-15T01:49:42.466Z,2.67
2022-09-15T01:51:44.921Z,2.38
2022-09-15T01:53:47.089Z,2.28
2022-09-15T01:55:52.190Z,2.30
2022-09-15T01:57:53.474Z,2.28
2022-09-15T01:59:55.583Z,1.95
2022-09-15T02:02:19.654Z,2.17
2022-09-15T02:04:32.277Z,1.90
2022-09-15T02:06:39.664Z,1.80
2022-09-15T02:08:45.146Z,2.13
2022-09-15T02:10:51.337Z,2.17
2022-09-15T02:12:58.411Z,2.42
2022-09-15T02:15:07.867Z,1.95
2022-09-15T02:17:14.498Z,1.95
2022-09-15T02:19:18.637Z,2.05
2022-09-15T02:21:22.345Z,2.42
2022-09-15T02:23:26.155Z,2.30
2022-09-15T02:25:30.722Z,2.60
2022-09-15T02:27:34.949Z,2.10
2022-09-15T02:29:36.907Z,2.10
2022-09-15T02:31:39.837Z,2.00
2022-09-15T02:33:44.114Z,2.20
2022-09-15T02:35:45.747Z,1.90
2022-09-15T02:37:47.510Z,2.20
2022-09-15T02:39:51.839Z,2.10
2022-09-15T02:41:53.389Z,2.05
2022-09-15T02:43:54.696Z,2.00
2022-09-15T02:45:56.164Z,2.00
2022-09-15T02:47:57.934Z,2.47
2022-09-15T02:49:59.346Z,2.20
2022-09-15T02:52:00.559Z,2.20
2022-09-15T02:54:02.010Z,2.00
2022-09-15T02:56:06.079Z,2.08
2022-09-15T02:58:07.399Z,2.15
2022-09-15T03:00:17.163Z,2.40
2022-09-15T03:02:20.077Z,2.20
2022-09-15T03:04:21.527Z,2.10
2022-09-15T03:06:23.005Z,2.15
2022-09-15T03:08:24.230Z,1.98
2022-09-15T03:10:25.820Z,2.28
2022-09-15T03:12:27.083Z,2.13
2022-09-15T03:14:29.374Z,2.13
2022-09-15T03:16:32.328Z,1.92
2022-09-15T03:18:33.612Z,2.00
2022-09-15T03:20:34.862Z,1.90
2022-09-15T03:22:36.375Z,2.25
2022-09-15T03:24:38.219Z,2.00
2022-09-15T03:26:39.660Z,1.80
2022-09-15T03:28:41.178Z,1.67
2022-09-15T03:30:42.382Z,1.73
2022-09-15T03:32:43.637Z,1.80
2022-09-15T03:34:45.117Z,1.58
2022-09-15T03:36:46.409Z,1.67
2022-09-15T03:38:47.674Z,1.50
2022-09-15T03:41:09.701Z,1.60
2022-09-15T03:43:14.358Z,1.77
2022-09-15T03:45:19.334Z,1.90
2022-09-15T03:47:20.557Z,1.70
2022-09-15T03:49:21.928Z,1.90
2022-09-15T03:51:24.445Z,1.95
2022-09-15T03:53:25.791Z,2.40
2022-09-15T03:55:27.882Z,2.00
2022-09-15T03:57:29.137Z,2.05
2022-09-15T03:59:30.571Z,1.98
2022-09-15T04:01:32.356Z,2.15
2022-09-15T04:03:34.494Z,1.90
2022-09-15T04:05:37.192Z,2.72
2022-09-15T04:07:39.259Z,2.40
2022-09-15T04:09:40.510Z,2.20
2022-09-15T04:11:42.818Z,2.60
2022-09-15T04:13:44.123Z,2.50
2022-09-15T04:15:45.575Z,2.03
2022-09-15T04:17:47.483Z,2.88
2022-09-15T04:19:48.755Z,1.98
2022-09-15T04:21:50.192Z,2.20
2022-09-15T04:23:51.934Z,1.98
2022-09-15T04:26:03.098Z,1.65
2022-09-15T04:28:04.713Z,1.95
2022-09-15T04:30:06.807Z,1.70
2022-09-15T04:32:08.201Z,2.13
2022-09-15T04:34:10.170Z,2.45
2022-09-15T04:36:13.301Z,2.20
2022-09-15T04:38:14.570Z,2.08
2022-09-15T04:40:15.919Z,1.83
2022-09-15T04:42:17.422Z,2.00
2022-09-15T04:44:18.723Z,2.25
2022-09-15T04:46:20.277Z,2.50
2022-09-15T04:48:22.314Z,2.22
2022-09-15T04:50:23.549Z,2.75
2022-09-15T04:52:24.858Z,3.03
2022-09-15T04:54:26.133Z,3.28
2022-09-15T04:56:27.725Z,3.15
2022-09-15T04:58:29.155Z,2.60
2022-09-15T05:00:31.319Z,2.88
2022-09-15T05:02:32.835Z,2.70
2022-09-15T05:04:34.833Z,2.00
2022-09-15T05:06:36.506Z,2.10
2022-09-15T05:08:38.095Z,1.50
2022-09-15T05:10:39.774Z,1.98
2022-09-15T05:12:41.410Z,2.40
2022-09-15T05:14:42.668Z,2.20
2022-09-15T05:16:43.956Z,2.30
2022-09-15T05:18:45.921Z,2.35
2022-09-15T05:20:47.266Z,2.10
2022-09-15T05:22:48.488Z,2.30
2022-09-15T05:24:49.906Z,2.20
2022-09-15T05:26:51.147Z,2.20
2022-09-15T05:28:52.770Z,2.00
2022-09-15T05:30:54.935Z,2.38
2022-09-15T05:32:56.196Z,2.35
2022-09-15T05:34:57.959Z,2.60
2022-09-15T05:36:59.186Z,2.00
2022-09-15T05:39:01.549Z,1.92
2022-09-15T05:41:07.859Z,1.95
2022-09-15T05:43:09.095Z,1.80
2022-09-15T05:45:10.940Z,2.00
2022-09-15T05:47:12.239Z,2.25
2022-09-15T05:49:13.532Z,2.67
2022-09-15T05:51:15.062Z,2.50
2022-09-15T05:53:16.293Z,2.60
2022-09-15T05:55:17.574Z,2.35
2022-09-15T05:57:18.794Z,2.33
2022-09-15T05:59:20.028Z,5.65
2022-09-15T06:01:23.339Z,2.13
2022-09-15T06:03:30.092Z,1.92
2022-09-15T06:05:32.322Z,2.13
2022-09-15T06:07:34.034Z,1.80
2022-09-15T06:09:35.284Z,1.75
2022-09-15T06:11:36.551Z,1.58
2022-09-15T06:13:38.241Z,1.50
2022-09-15T06:15:39.524Z,1.50
2022-09-15T06:17:40.783Z,1.88
2022-09-15T06:19:42.209Z,1.60
2022-09-15T06:21:43.481Z,1.30
2022-09-15T06:23:49.958Z,1.48
2022-09-15T06:25:52.078Z,1.35
2022-09-15T06:27:54.191Z,1.10
2022-09-15T06:29:55.430Z,1.50
2022-09-15T06:32:02.452Z,1.40
2022-09-15T06:34:04.833Z,1.45
2022-09-15T06:36:07.337Z,1.40
2022-09-15T06:38:08.854Z,1.30
2022-09-15T06:40:10.503Z,1.48
2022-09-15T06:42:13.841Z,1.85
2022-09-15T06:44:15.314Z,2.25
2022-09-15T06:46:18.338Z,1.75
2022-09-15T06:48:24.813Z,2.05
2022-09-15T06:50:26.789Z,1.45
2022-09-15T06:52:28.105Z,1.83
2022-09-15T06:54:29.335Z,1.70
2022-09-15T06:56:34.568Z,1.73
2022-09-15T06:58:39.982Z,1.67
2022-09-15T07:00:41.807Z,1.73
2022-09-15T07:02:43.197Z,2.25
2022-09-15T07:04:44.710Z,2.08
2022-09-15T07:06:46.037Z,1.52
2022-09-15T07:08:47.658Z,1.88
2022-09-15T07:10:49.092Z,1.60
2022-09-15T07:12:50.364Z,1.60
2022-09-15T07:14:51.807Z,1.42
2022-09-15T07:16:53.145Z,1.40
2022-09-15T07:18:55.447Z,1.33
2022-09-15T07:21:00.576Z,3.92
2022-09-15T07:23:01.861Z,2.95
2022-09-15T07:25:03.255Z,1.70
2022-09-15T07:27:04.666Z,2.03
2022-09-15T07:29:06.850Z,1.70
2022-09-15T07:31:09.286Z,1.08
2022-09-15T07:33:11.886Z,1.88
2022-09-15T07:35:13.420Z,1.50
2022-09-15T07:37:15.986Z,1.60
2022-09-15T07:39:17.263Z,1.67
2022-09-15T07:41:21.162Z,1.55
2022-09-15T07:43:22.416Z,1.70
2022-09-15T07:45:23.871Z,1.58
2022-09-15T07:47:25.550Z,1.60
2022-09-15T07:49:26.871Z,1.30
2022-09-15T07:51:28.150Z,1.50
2022-09-15T07:53:29.620Z,2.05
2022-09-15T07:55:31.162Z,1.58
2022-09-15T07:57:32.593Z,2.13
2022-09-15T07:59:36.307Z,1.70
2022-09-15T08:01:39.862Z,1.42
2022-09-15T08:03:42.766Z,1.58
2022-09-15T08:05:45.786Z,1.45
2022-09-15T08:07:47.378Z,1.70
2022-09-15T08:09:48.634Z,1.70
2022-09-15T08:11:49.865Z,1.25
2022-09-15T08:13:52.323Z,1.80
2022-09-15T08:15:53.751Z,1.60
2022-09-15T08:17:55.399Z,1.30
2022-09-15T08:19:56.730Z,1.50
2022-09-15T08:21:58.457Z,1.45
2022-09-15T08:24:00.017Z,1.40
2022-09-15T08:26:01.619Z,1.50
2022-09-15T08:28:02.938Z,1.58
2022-09-15T08:30:05.158Z,1.48
2022-09-15T08:32:06.596Z,3.92
2022-09-15T08:34:11.069Z,2.55
2022-09-15T08:36:13.002Z,2.25
2022-09-15T08:38:14.428Z,1.90
2022-09-15T08:40:20.878Z,1.90
2022-09-15T08:42:24.018Z,2.53
2022-09-15T08:44:44.224Z,3.70
2022-09-15T08:46:52.526Z,1.83
2022-09-15T08:49:12.690Z,1.67
2022-09-15T08:51:19.885Z,1.60
2022-09-15T08:53:31.159Z,2.28
2022-09-15T08:55:48.715Z,1.75
2022-09-15T08:57:52.661Z,1.80
2022-09-15T08:59:54.790Z,1.98
2022-09-15T09:02:04.987Z,1.60
2022-09-15T09:04:06.314Z,2.00
2022-09-15T09:06:10.522Z,1.90
2022-09-15T09:08:14.763Z,1.63
2022-09-15T09:10:16.027Z,1.80
2022-09-15T09:12:32.583Z,1.63
2022-09-15T09:14:45.910Z,1.73
2022-09-15T09:16:52.763Z,2.40
2022-09-15T09:19:00.023Z,1.70
2022-09-15T09:21:01.386Z,1.60
2022-09-15T09:23:04.729Z,1.90
2022-09-15T09:25:26.269Z,2.10
2022-09-15T09:27:30.616Z,1.55
2022-09-15T09:29:34.302Z,1.60
2022-09-15T09:31:35.994Z,2.10
2022-09-15T09:33:47.710Z,1.70
2022-09-15T09:35:51.596Z,1.73
2022-09-15T09:37:53.298Z,1.70
2022-09-15T09:39:54.639Z,1.60
2022-09-15T09:41:56.127Z,1.77
2022-09-15T09:43:57.441Z,1.48
2022-09-15T09:45:59.677Z,1.77
2022-09-15T09:48:03.261Z,1.70
2022-09-15T09:50:24.575Z,1.80
2022-09-15T09:52:33.868Z,1.50
2022-09-15T09:54:35.602Z,1.60
2022-09-15T09:56:37.001Z,1.80
2022-09-15T09:58:38.311Z,1.65
2022-09-15T10:00:40.570Z,1.60
2022-09-15T10:02:48.190Z,1.90
2022-09-15T10:04:53.845Z,1.80
2022-09-15T10:06:55.712Z,1.70
2022-09-15T10:08:58.502Z,1.48
2022-09-15T10:11:03.988Z,1.58
2022-09-15T10:13:05.287Z,1.77
2022-09-15T10:15:07.634Z,1.80
2022-09-15T10:17:10.614Z,1.40
2022-09-15T10:19:13.970Z,1.50
2022-09-15T10:21:15.853Z,1.60
2022-09-15T10:23:17.427Z,1.50
2022-09-15T10:25:22.914Z,1.50
2022-09-15T10:27:28.696Z,1.33
2022-09-15T10:29:36.589Z,1.50
2022-09-15T10:31:37.990Z,1.40
2022-09-15T10:33:41.778Z,1.20
2022-09-15T10:35:46.560Z,1.85
2022-09-15T10:37:53.712Z,1.30
2022-09-15T10:39:55.986Z,1.50
2022-09-15T10:42:02.550Z,1.35
2022-09-15T10:44:06.711Z,1.30
2022-09-15T10:46:28.219Z,1.20
2022-09-15T10:48:41.040Z,1.38
2022-09-15T10:50:42.270Z,2.17
2022-09-15T10:52:52.740Z,1.70
2022-09-15T10:56:57.731Z,1.60
2022-09-15T10:59:05.454Z,1.35
2022-09-15T11:01:09.634Z,1.50
2022-09-15T11:03:21.665Z,1.33
2022-09-15T11:06:01.501Z,1.30
2022-09-15T11:08:08.863Z,1.40
2022-09-15T11:10:14.252Z,1.63
2022-09-15T11:12:33.120Z,1.52
2022-09-15T11:14:37.249Z,1.50
2022-09-15T11:16:48.995Z,1.70
2022-09-15T11:18:50.252Z,1.40
2022-09-15T11:20:56.556Z,1.50
2022-09-15T11:23:17.571Z,1.70
2022-09-15T11:25:20.614Z,1.42
2022-09-15T11:27:36.100Z,1.10
2022-09-15T11:29:43.352Z,1.40
2022-09-15T11:31:46.464Z,1.40
2022-09-15T11:33:50.795Z,1.17
2022-09-15T11:36:00.289Z,1.10
2022-09-15T11:38:13.049Z,1.00
2022-09-15T11:40:25.303Z,1.00
2022-09-15T11:42:45.910Z,1.10
2022-09-15T11:44:47.800Z,1.15
2022-09-15T11:46:49.413Z,1.25
2022-09-15T11:48:57.282Z,0.90
2022-09-15T11:50:59.967Z,1.00
2022-09-15T11:53:01.203Z,0.90
2022-09-15T11:55:06.908Z,1.15
2022-09-15T11:57:15.260Z,0.90
2022-09-15T11:59:26.902Z,1.02
2022-09-15T12:01:41.957Z,0.90
2022-09-15T12:03:49.956Z,0.90
2022-09-15T12:05:56.159Z,0.90
2022-09-15T12:08:15.267Z,1.00
2022-09-15T12:10:30.086Z,1.10
2022-09-15T12:12:32.630Z,1.05
2022-09-15T12:14:38.482Z,0.93
2022-09-15T12:16:39.912Z,0.80
2022-09-15T12:18:46.822Z,1.00
2022-09-15T12:20:57.574Z,0.80
2022-09-15T12:25:01.204Z,0.90
2022-09-15T12:27:02.701Z,0.75
2022-09-15T12:29:24.220Z,0.90
2022-09-15T12:31:30.066Z,0.80
2022-09-15T12:33:44.425Z,1.00
2022-09-15T12:35:45.915Z,1.00
2022-09-15T12:37:53.315Z,0.73
2022-09-15T12:39:54.715Z,0.95
2022-09-15T12:42:07.634Z,0.93
2022-09-15T12:44:17.693Z,1.10
2022-09-15T12:46:19.191Z,0.80
2022-09-15T12:48:23.317Z,1.20
2022-09-15T12:50:27.398Z,0.90
2022-09-15T12:52:29.238Z,1.02
2022-09-15T12:54:31.605Z,0.90
2022-09-15T12:56:33.625Z,0.80
2022-09-15T12:58:36.869Z,1.00
2022-09-15T13:00:42.488Z,0.70
2022-09-15T13:02:56.887Z,0.73
2022-09-15T13:04:58.288Z,0.77
2022-09-15T13:07:28.655Z,0.80
2022-09-15T13:09:42.715Z,0.80
2022-09-15T13:11:47.084Z,0.80
2022-09-15T13:13:53.194Z,1.10
2022-09-15T13:15:55.326Z,0.82
2022-09-15T13:17:56.949Z,0.80
2022-09-15T13:19:59.970Z,0.90
2022-09-15T13:22:20.488Z,0.70
2022-09-15T13:26:25.429Z,0.80
2022-09-15T13:28:27.058Z,0.90
2022-09-15T13:30:28.744Z,0.70
2022-09-15T13:32:31.616Z,0.90
2022-09-15T13:35:06.644Z,0.90
2022-09-15T13:39:42.317Z,0.93
2022-09-15T13:41:43.535Z,0.85
2022-09-15T13:43:58.459Z,0.90
2022-09-15T13:46:22.903Z,0.90
2022-09-15T13:48:30.904Z,0.80
2022-09-15T13:50:40.291Z,1.00
2022-09-15T13:52:50.458Z,1.02
2022-09-15T13:55:10.290Z,1.00
2022-09-15T13:57:11.539Z,0.90
2022-09-15T13:59:18.226Z,0.80
2022-09-15T14:01:21.271Z,1.00
2022-09-15T14:03:36.925Z,1.30
2022-09-15T14:05:38.416Z,1.30
2022-09-15T14:07:39.821Z,1.30
2022-09-15T14:09:44.533Z,1.23
2022-09-15T14:11:50.375Z,1.20
2022-09-15T14:13:51.919Z,1.27
2022-09-15T14:15:57.437Z,1.30
2022-09-15T14:17:58.682Z,1.38
2022-09-15T14:20:01.011Z,1.20
2022-09-15T14:22:17.742Z,1.40
2022-09-15T14:24:21.277Z,1.40
2022-09-15T14:26:24.290Z,1.35
2022-09-15T14:28:31.546Z,1.60
2022-09-15T14:30:33.033Z,1.35
2022-09-15T14:32:36.969Z,1.50
2022-09-15T14:34:38.317Z,1.50
2022-09-15T14:36:39.841Z,1.40
2022-09-15T14:38:41.167Z,1.60
2022-09-15T14:40:42.628Z,1.70
2022-09-15T14:42:44.286Z,1.42
2022-09-15T14:47:10.719Z,1.77
2022-09-15T14:49:12.386Z,1.70
2022-09-15T14:51:22.514Z,1.52
2022-09-15T14:53:24.622Z,1.45
2022-09-15T14:55:30.968Z,1.60
2022-09-15T14:57:34.365Z,1.67
2022-09-15T14:59:44.500Z,1.38
2022-09-15T15:01:50.419Z,1.20
2022-09-15T15:04:04.049Z,1.90
2022-09-15T15:06:32.043Z,1.90
2022-09-15T15:08:45.570Z,1.50
2022-09-15T15:10:47.080Z,1.35
2022-09-15T15:13:08.534Z,1.38
2022-09-15T15:15:11.296Z,1.52
2022-09-15T15:17:29.591Z,1.00
2022-09-15T15:19:34.999Z,1.30
2022-09-15T15:21:40.443Z,1.70
2022-09-15T15:23:46.858Z,1.30
2022-09-15T15:25:48.486Z,2.08
2022-09-15T15:27:54.190Z,1.60
2022-09-15T15:29:55.608Z,1.15
2022-09-15T15:32:16.369Z,1.20
2022-09-15T15:34:22.719Z,1.52
2022-09-15T15:36:24.518Z,1.83
2022-09-15T15:38:26.938Z,1.77
2022-09-15T15:40:28.790Z,1.60
2022-09-15T15:42:30.123Z,1.40
2022-09-15T15:44:31.702Z,2.28
2022-09-15T15:46:45.214Z,1.77
2022-09-15T15:48:48.501Z,1.40
2022-09-15T15:50:50.005Z,1.50
2022-09-15T15:52:51.871Z,1.17
2022-09-15T15:54:53.232Z,1.30
2022-09-15T15:56:54.478Z,2.10
2022-09-15T15:58:55.918Z,1.02
2022-09-15T16:00:57.342Z,1.30
2022-09-15T16:02:58.670Z,1.27
2022-09-15T16:05:00.177Z,1.30
2022-09-15T16:07:01.441Z,1.30
2022-09-15T16:09:03.776Z,1.50
2022-09-15T16:11:07.947Z,1.20
2022-09-15T16:13:09.754Z,1.10
2022-09-15T16:15:15.716Z,1.27
2022-09-15T16:17:16.939Z,1.30
2022-09-15T16:19:18.207Z,1.00
2022-09-15T16:21:27.241Z,1.35
2022-09-15T16:23:28.669Z,1.20
2022-09-15T16:25:48.662Z,1.50
2022-09-15T16:27:49.923Z,1.20
2022-09-15T16:29:51.342Z,1.50
2022-09-15T16:31:52.803Z,1.40
2022-09-15T16:33:54.179Z,1.60
2022-09-15T16:36:08.313Z,1.42
2022-09-15T16:38:10.067Z,1.40
2022-09-15T16:40:11.421Z,1.33
2022-09-15T16:42:12.816Z,1.30
2022-09-15T16:44:18.748Z,1.45
2022-09-15T16:46:20.407Z,1.70
2022-09-15T16:48:21.695Z,1.65
2022-09-15T16:50:23.113Z,1.77
2022-09-15T16:52:24.578Z,1.40
2022-09-15T16:54:25.814Z,1.65
2022-09-15T16:56:27.651Z,1.48
2022-09-15T16:58:28.878Z,1.60
2022-09-15T17:00:31.311Z,1.35
2022-09-15T17:02:32.605Z,1.60
2022-09-15T17:04:33.831Z,1.27
2022-09-15T17:06:35.144Z,1.30
2022-09-15T17:08:36.556Z,1.30
2022-09-15T17:10:38.450Z,1.20
2022-09-15T17:12:39.733Z,1.60
2022-09-15T17:14:40.945Z,1.40
2022-09-15T17:16:42.202Z,1.30
2022-09-15T17:18:43.633Z,1.67
2022-09-15T17:20:45.827Z,1.40
2022-09-15T17:22:47.570Z,1.67
2022-09-15T17:24:48.797Z,2.03
2022-09-15T17:26:50.336Z,1.60
2022-09-15T17:28:51.618Z,1.40
2022-09-15T17:30:57.087Z,1.40
2022-09-15T17:33:05.985Z,1.27
2022-09-15T17:35:25.844Z,1.35
2022-09-15T17:37:27.127Z,1.00
2022-09-15T17:39:28.377Z,1.40
2022-09-15T17:41:30.241Z,1.20
2022-09-15T17:43:31.885Z,1.20
2022-09-15T17:45:34.365Z,1.05
2022-09-15T17:47:37.205Z,1.00
2022-09-15T17:49:38.417Z,1.40
2022-09-15T17:51:39.667Z,1.33
2022-09-15T17:53:41.114Z,1.30
2022-09-15T17:55:42.895Z,1.42
2022-09-15T17:57:44.281Z,1.42
2022-09-15T17:59:45.605Z,1.27
2022-09-15T18:01:47.187Z,1.23
2022-09-15T18:03:48.826Z,1.30
2022-09-15T18:05:50.847Z,1.40
2022-09-15T18:07:58.072Z,1.25
2022-09-15T18:09:59.942Z,1.20
2022-09-15T18:12:01.370Z,1.50
2022-09-15T18:14:02.885Z,1.48
2022-09-15T18:16:05.466Z,1.60
2022-09-15T18:18:09.054Z,1.60
2022-09-15T18:20:12.816Z,1.30
2022-09-15T18:22:14.198Z,2.00
2022-09-15T18:24:15.478Z,2.13
2022-09-15T18:26:16.750Z,2.17
2022-09-15T18:28:18.707Z,1.60
2022-09-15T18:30:20.817Z,2.17
2022-09-15T18:32:22.276Z,1.55
2022-09-15T18:34:23.553Z,1.60
2022-09-15T18:36:24.842Z,1.70
2022-09-15T18:38:26.431Z,1.90
2022-09-15T18:40:27.759Z,2.75
2022-09-15T18:42:31.852Z,2.90
2022-09-15T18:44:33.567Z,2.05
2022-09-15T18:46:34.852Z,2.00
2022-09-15T18:48:36.124Z,1.90
2022-09-15T18:50:37.895Z,1.98
2022-09-15T18:52:40.331Z,1.75
2022-09-15T18:54:41.590Z,1.50
2022-09-15T18:56:43.011Z,1.80
2022-09-15T18:58:44.254Z,1.48
2022-09-15T19:00:45.979Z,1.77
2022-09-15T19:02:47.258Z,1.50
2022-09-15T19:04:48.497Z,1.58
2022-09-15T19:06:49.738Z,1.73
2022-09-15T19:08:51.049Z,2.20
2022-09-15T19:10:59.081Z,2.00
2022-09-15T19:13:00.553Z,2.83
2022-09-15T19:15:02.118Z,1.70
2022-09-15T19:17:03.424Z,1.80
2022-09-15T19:19:04.720Z,2.20
2022-09-15T19:21:07.152Z,1.95
2022-09-15T19:23:09.577Z,1.75
2022-09-15T19:25:11.475Z,1.60
2022-09-15T19:27:12.805Z,1.52
2022-09-15T19:29:15.488Z,1.40
2022-09-15T19:31:17.056Z,1.70
2022-09-15T19:33:18.611Z,1.80
2022-09-15T19:35:20.176Z,1.60
2022-09-15T19:37:21.756Z,1.80
2022-09-15T19:39:23.211Z,1.80
2022-09-15T19:41:24.735Z,1.73
2022-09-15T19:43:25.966Z,1.90
2022-09-15T19:45:27.222Z,1.90
2022-09-15T19:47:28.489Z,2.05
2022-09-15T19:49:30.022Z,2.00
2022-09-15T19:51:31.590Z,2.75
2022-09-15T19:53:33.171Z,2.28
2022-09-15T19:55:34.614Z,2.60
2022-09-15T19:57:39.876Z,3.03
2022-09-15T19:59:41.382Z,2.78
2022-09-15T20:01:43.292Z,2.55
2022-09-15T20:03:44.726Z,3.20
2022-09-15T20:05:50.215Z,2.50
2022-09-15T20:07:51.753Z,3.42
2022-09-15T20:09:53.167Z,3.22
2022-09-15T20:11:54.775Z,2.97
2022-09-15T20:13:56.383Z,3.30
2022-09-15T20:15:58.874Z,2.95
2022-09-15T20:18:00.127Z,3.25
2022-09-15T20:20:01.489Z,3.05
2022-09-15T20:22:03.377Z,2.78
2022-09-15T20:24:04.797Z,3.10
2022-09-15T20:26:07.736Z,2.53
2022-09-15T20:28:09.022Z,2.55
2022-09-15T20:30:10.522Z,3.22
2022-09-15T20:32:11.801Z,2.50
2022-09-15T20:34:13.314Z,2.30
2022-09-15T20:36:16.250Z,2.35
2022-09-15T20:38:17.503Z,2.67
2022-09-15T20:40:18.857Z,2.20
2022-09-15T20:42:20.217Z,2.78
2022-09-15T20:44:21.473Z,2.72
2022-09-15T20:46:23.112Z,2.15
2022-09-15T20:48:24.376Z,2.83
2022-09-15T20:50:27.299Z,2.60
2022-09-15T20:52:32.572Z,2.30
2022-09-15T20:54:35.974Z,3.05
2022-09-15T20:56:38.110Z,2.65
2022-09-15T20:58:39.424Z,2.50
2022-09-15T21:00:40.720Z,2.70
2022-09-15T21:02:42.232Z,2.70
2022-09-15T21:04:43.733Z,2.40
2022-09-15T21:06:45.411Z,2.35
2022-09-15T21:08:47.439Z,2.63
2022-09-15T21:10:49.457Z,2.05
2022-09-15T21:12:50.712Z,2.55
2022-09-15T21:14:51.966Z,2.60
2022-09-15T21:16:53.964Z,2.63
2022-09-15T21:18:56.371Z,2.50
2022-09-15T21:20:58.363Z,2.60
2022-09-15T21:22:59.714Z,2.33
2022-09-15T21:25:00.980Z,2.63
2022-09-15T21:27:20.647Z,2.90
2022-09-15T21:29:22.067Z,2.70
2022-09-15T21:31:25.968Z,2.50
2022-09-15T21:33:27.307Z,2.47
2022-09-15T21:35:28.730Z,2.50
2022-09-15T21:37:30.129Z,2.25
2022-09-15T21:39:31.401Z,2.70
2022-09-15T21:41:32.811Z,2.60
2022-09-15T21:43:39.164Z,2.83
2022-09-15T21:45:40.470Z,2.90
2022-09-15T21:47:41.706Z,2.83
2022-09-15T21:49:43.116Z,2.90
2022-09-15T21:51:44.396Z,3.28
2022-09-15T21:53:46.143Z,2.88
2022-09-15T21:55:50.452Z,2.80
2022-09-15T21:57:51.699Z,2.33
2022-09-15T21:59:52.983Z,2.13
2022-09-15T22:01:54.476Z,2.60
2022-09-15T22:03:59.731Z,2.70
2022-09-15T22:06:01.944Z,2.30
2022-09-15T22:08:05.095Z,2.90
2022-09-15T22:10:06.864Z,3.20
2022-09-15T22:12:08.605Z,2.20
2022-09-15T22:14:10.238Z,2.40
2022-09-15T22:16:13.717Z,2.30
2022-09-15T22:18:15.181Z,2.78
2022-09-15T22:20:16.754Z,2.75
2022-09-15T22:22:17.970Z,2.85
2022-09-15T22:24:19.600Z,2.75
2022-09-15T22:26:22.650Z,2.47
2022-09-15T22:28:23.899Z,2.60
2022-09-15T22:30:25.170Z,2.90
2022-09-15T22:32:26.952Z,3.03
2022-09-15T22:34:29.049Z,2.70
2022-09-15T22:36:30.659Z,3.08
2022-09-15T22:38:31.923Z,3.33
2022-09-15T22:40:33.491Z,2.55
2022-09-15T22:42:34.786Z,2.95
2022-09-15T22:44:36.049Z,3.70
2022-09-15T22:46:37.284Z,3.85
2022-09-15T22:48:43.249Z,3.70
2022-09-15T22:50:45.866Z,2.85
2022-09-15T22:52:48.162Z,2.70
2022-09-15T22:54:49.428Z,2.90
2022-09-15T22:56:50.892Z,2.70
2022-09-15T22:58:52.215Z,2.70
2022-09-15T23:00:53.535Z,2.95
2022-09-15T23:02:54.865Z,2.45
2022-09-15T23:04:56.098Z,3.20
2022-09-15T23:06:57.315Z,3.30
2022-09-15T23:09:00.214Z,2.70
2022-09-15T23:11:09.223Z,2.70
2022-09-15T23:13:12.027Z,3.30
2022-09-15T23:15:13.243Z,2.90
2022-09-15T23:17:14.519Z,2.50
2022-09-15T23:19:15.826Z,2.70
2022-09-15T23:21:17.388Z,2.67
2022-09-15T23:23:18.606Z,2.78
2022-09-15T23:25:20.018Z,2.72
2022-09-15T23:27:21.249Z,2.40
2022-09-15T23:29:24.898Z,2.45
2022-09-15T23:31:26.258Z,1.83
2022-09-15T23:33:28.367Z,1.98
2022-09-15T23:35:29.620Z,1.80
2022-09-15T23:37:31.039Z,1.92
2022-09-15T23:39:32.280Z,2.45
2022-09-15T23:41:33.580Z,2.00
2022-09-15T23:43:35.124Z,1.90
2022-09-15T23:45:36.711Z,1.90
2022-09-15T23:47:37.921Z,1.85
2022-09-15T23:49:39.143Z,2.60
2022-09-15T23:51:40.436Z,2.10
2022-09-15T23:53:41.740Z,1.80
2022-09-15T23:55:43.412Z,1.88
2022-09-15T23:57:44.711Z,2.05
2022-09-15T23:59:45.961Z,1.90
